Time;durP1;ratioP1;P1;durP2;ratioP2;P2;SDS_P1;SDS_P2;PMS_P1;PMS_P2;Temp;Humidity;BMP_temperature;BMP_pressure;BME280_temperature;BME280_humidity;BME280_pressure;Samples;Min_cycle;Max_cycle;Signal;HPM_P1;HPM_P2
2022/11/10 00:00:35;;;;;;;;;;;20.80;47.70;;;;;;5035641;28;20052;-52
2022/11/10 00:03:19;;;;;;;4.00;1.35;;;20.80;47.70;;;;;;5043343;28;19918;-53
2022/11/10 00:06:08;;;;;;;3.22;1.00;;;20.70;47.70;;;;;;5049303;28;20087;-52
2022/11/10 00:08:52;;;;;;;4.22;1.45;;;20.70;47.70;;;;;;5040819;28;20044;-54
2022/11/10 00:11:36;;;;;;;3.35;1.35;;;20.70;47.70;;;;;;5051276;28;20140;-52
2022/11/10 00:17:24;;;;;;;2.47;1.10;;;20.70;47.80;;;;;;5035552;28;19959;-52
2022/11/10 00:20:09;;;;;;;3.50;1.27;;;20.70;47.70;;;;;;5035716;28;20051;-51
2022/11/10 00:22:54;;;;;;;2.92;1.20;;;20.70;47.80;;;;;;5048223;28;20510;-52
2022/11/10 00:25:39;;;;;;;3.20;1.13;;;20.70;47.80;;;;;;5057452;28;20511;-56
2022/11/10 00:28:23;;;;;;;2.97;1.00;;;20.70;47.90;;;;;;5058806;28;20048;-54
2022/11/10 00:31:08;;;;;;;4.60;1.50;;;20.70;47.90;;;;;;5057598;28;20091;-51
2022/11/10 00:33:53;;;;;;;4.00;1.25;;;20.70;47.90;;;;;;5050760;28;20056;-56
2022/11/10 00:36:37;;;;;;;3.33;1.42;;;20.70;47.90;;;;;;5042030;28;20111;-55
2022/11/10 00:39:22;;;;;;;3.90;1.08;;;20.70;47.90;;;;;;5038675;28;20060;-53
2022/11/10 00:42:06;;;;;;;2.88;1.10;;;20.70;47.90;;;;;;5054659;28;20039;-55
2022/11/10 00:44:51;;;;;;;4.22;1.35;;;20.70;47.90;;;;;;5058028;28;20101;-55
2022/11/10 00:47:35;;;;;;;5.72;1.48;;;20.70;47.90;;;;;;5057281;28;20581;-57
2022/11/10 00:50:19;;;;;;;3.67;1.20;;;20.60;47.80;;;;;;5053048;28;20122;-55
2022/11/10 00:53:03;;;;;;;4.43;1.35;;;20.70;47.90;;;;;;5057575;28;20167;-54
2022/11/10 00:55:48;;;;;;;3.45;1.13;;;20.70;47.90;;;;;;5058438;28;20059;-55
2022/11/10 00:58:32;;;;;;;3.40;1.40;;;20.60;47.80;;;;;;5054843;28;20099;-55
2022/11/10 01:01:18;;;;;;;3.58;1.20;;;20.60;47.80;;;;;;5047090;28;20043;-56
2022/11/10 01:04:03;;;;;;;2.80;1.10;;;20.60;47.90;;;;;;5057931;28;20040;-51
2022/11/10 01:06:47;;;;;;;2.90;1.08;;;20.60;47.90;;;;;;5042446;28;20182;-54
2022/11/10 01:09:31;;;;;;;2.85;1.00;;;20.60;47.90;;;;;;5050003;28;20044;-55
2022/11/10 01:12:15;;;;;;;2.72;1.10;;;20.60;47.90;;;;;;5056839;28;20043;-55
2022/11/10 01:15:00;;;;;;;;;;;20.60;47.90;;;;;;5058263;28;20075;-55
2022/11/10 01:17:45;;;;;;;3.55;1.10;;;20.60;47.90;;;;;;5055473;28;19963;-56
2022/11/10 01:20:31;;;;;;;2.58;1.15;;;20.60;48.00;;;;;;5039675;28;20138;-54
2022/11/10 01:23:16;;;;;;;3.63;1.17;;;20.60;48.00;;;;;;5055669;28;20129;-57
2022/11/10 01:26:03;;;;;;;4.68;1.20;;;20.60;48.00;;;;;;5037450;28;20044;-56
2022/11/10 01:28:48;;;;;;;5.70;1.77;;;20.60;48.00;;;;;;5037690;28;20515;-57
2022/11/10 01:31:32;;;;;;;3.75;1.67;;;20.60;48.00;;;;;;5048669;28;20166;-55
2022/11/10 01:34:16;;;;;;;3.00;1.10;;;20.60;48.00;;;;;;5055653;28;20517;-55
2022/11/10 01:37:00;;;;;;;2.17;1.10;;;20.60;48.10;;;;;;5057562;28;20043;-57
2022/11/10 01:39:44;;;;;;;3.42;1.10;;;20.60;48.00;;;;;;5057383;28;20072;-53
2022/11/10 01:42:44;;;;;;;3.83;1.20;;;20.60;48.00;;;;;;5037572;28;20044;-53
2022/11/10 01:45:43;;;;;;;3.22;1.00;;;20.50;48.00;;;;;;5037722;28;20510;-56
2022/11/10 01:48:34;;;;;;;4.80;1.10;;;20.60;48.00;;;;;;5041385;28;20040;-57
2022/11/10 01:51:24;;;;;;;2.50;1.02;;;20.50;48.00;;;;;;5055748;28;20039;-54
2022/11/10 01:54:13;;;;;;;2.72;1.15;;;20.50;48.00;;;;;;5055879;28;20044;-53
2022/11/10 01:57:01;;;;;;;4.35;1.30;;;20.50;48.00;;;;;;5055229;28;20106;-57
2022/11/10 01:59:47;;;;;;;3.42;1.05;;;20.50;48.00;;;;;;5037083;28;20531;-54
2022/11/10 02:02:43;;;;;;;5.13;1.40;;;20.50;48.00;;;;;;5037598;28;20052;-56
2022/11/10 02:05:27;;;;;;;4.32;1.10;;;20.50;48.00;;;;;;5056712;28;20048;-54
2022/11/10 02:08:15;;;;;;;3.58;1.38;;;20.50;48.00;;;;;;5052953;28;20040;-56
2022/11/10 02:10:59;;;;;;;4.03;1.13;;;20.50;48.00;;;;;;5049682;28;20063;-55
2022/11/10 02:13:44;;;;;;;4.35;1.60;;;20.50;48.00;;;;;;5043094;28;20119;-57
2022/11/10 02:16:29;;;;;;;;;;;20.50;48.00;;;;;;5048380;28;20103;-55
2022/11/10 02:19:16;;;;;;;3.45;1.23;;;20.50;48.00;;;;;;5054283;28;19919;-56
2022/11/10 02:22:01;;;;;;;2.83;1.30;;;20.50;48.10;;;;;;5056328;28;20080;-58
2022/11/10 02:24:45;;;;;;;4.63;1.40;;;20.40;48.10;;;;;;5056706;28;20043;-55
2022/11/10 02:27:29;;;;;;;2.78;1.17;;;20.50;48.10;;;;;;5048601;28;20049;-54
2022/11/10 02:30:14;;;;;;;2.63;0.98;;;20.40;48.10;;;;;;5041039;28;20073;-55
2022/11/10 02:32:59;;;;;;;2.53;1.13;;;20.40;48.10;;;;;;5055202;28;20061;-57
2022/11/10 02:35:45;;;;;;;3.13;1.00;;;20.40;48.10;;;;;;5056114;28;20196;-56
2022/11/10 02:38:29;;;;;;;3.08;1.08;;;20.40;48.10;;;;;;5056468;28;20048;-56
2022/11/10 02:41:13;;;;;;;3.28;1.13;;;20.40;48.70;;;;;;5055236;28;20131;-57
2022/11/10 02:43:58;;;;;;;2.92;1.08;;;20.40;48.10;;;;;;5035505;28;20045;-54
2022/11/10 02:46:42;;;;;;;3.50;1.05;;;20.40;48.10;;;;;;5056061;28;20044;-54
2022/11/10 02:49:27;;;;;;;2.20;1.02;;;20.40;48.10;;;;;;5055998;28;20051;-57
2022/11/10 02:52:12;;;;;;;5.43;1.30;;;20.40;48.10;;;;;;5035947;28;20132;-57
2022/11/10 02:54:56;;;;;;;3.90;1.40;;;20.40;48.20;;;;;;5036570;28;20087;-54
2022/11/10 02:57:40;;;;;;;3.75;1.40;;;20.40;48.20;;;;;;5046828;28;20125;-53
2022/11/10 03:00:25;;;;;;;4.63;1.33;;;20.40;48.30;;;;;;5049065;28;20049;-54
2022/11/10 03:03:10;;;;;;;2.20;1.02;;;20.40;48.30;;;;;;5055602;28;20048;-56
2022/11/10 03:05:54;;;;;;;2.60;1.05;;;20.40;48.30;;;;;;5051092;28;20032;-54
2022/11/10 03:08:38;;;;;;;3.80;1.33;;;20.40;48.30;;;;;;5044064;28;20056;-55
2022/11/10 03:11:23;;;;;;;2.30;0.88;;;20.40;48.30;;;;;;5047419;28;20443;-56
2022/11/10 03:14:08;;;;;;;4.28;1.52;;;20.40;48.30;;;;;;5034946;28;20060;-55
2022/11/10 03:16:52;;;;;;;4.13;1.10;;;20.40;48.30;;;;;;5035422;28;20044;-58
2022/11/10 03:19:36;;;;;;;3.42;1.40;;;20.40;48.30;;;;;;5050324;28;20545;-54
2022/11/10 03:22:20;;;;;;;2.47;1.00;;;20.40;48.30;;;;;;5043056;28;20040;-57
2022/11/10 03:25:06;;;;;;;3.13;1.10;;;20.40;48.30;;;;;;5053760;28;20036;-52
2022/11/10 03:27:50;;;;;;;2.78;0.93;;;20.40;48.30;;;;;;5040105;28;20080;-55
2022/11/10 03:30:35;;;;;;;5.18;1.40;;;20.30;48.30;;;;;;5055169;28;20052;-57
2022/11/10 03:33:20;;;;;;;2.55;1.10;;;20.30;48.30;;;;;;5039882;28;20365;-57
2022/11/10 03:36:05;;;;;;;3.95;1.35;;;20.30;48.30;;;;;;5035468;28;20044;-58
2022/11/10 03:38:49;;;;;;;;;;;20.40;48.30;;;;;;5055574;28;20182;-56
2022/11/10 03:41:33;;;;;;;4.05;1.27;;;20.30;48.30;;;;;;5053539;28;19919;-56
2022/11/10 03:44:18;;;;;;;3.28;1.17;;;20.30;48.30;;;;;;5055225;28;20103;-53
2022/11/10 03:47:02;;;;;;;3.85;1.30;;;20.30;48.30;;;;;;5052075;28;20424;-53
2022/11/10 03:49:47;;;;;;;5.53;1.38;;;20.30;48.30;;;;;;5035152;28;20397;-54
2022/11/10 03:52:32;;;;;;;4.55;1.45;;;20.30;48.30;;;;;;5042916;28;20044;-56
2022/11/10 03:55:18;;;;;;;3.10;1.33;;;20.30;48.30;;;;;;5054298;28;20051;-56
2022/11/10 03:58:03;;;;;;;5.07;1.40;;;20.30;48.30;;;;;;5034807;28;20195;-56
2022/11/10 04:00:47;;;;;;;2.92;1.10;;;20.30;48.30;;;;;;5035005;28;20056;-57
2022/11/10 04:03:32;;;;;;;3.28;1.13;;;20.30;48.30;;;;;;5035241;28;20049;-54
2022/11/10 04:09:19;;;;;;;4.28;1.58;;;20.30;48.30;;;;;;5041269;28;20099;-54
2022/11/10 04:18:20;;;;;;;4.25;1.40;;;20.30;48.30;;;;;;5050851;28;20055;-55
2022/11/10 04:21:04;;;;;;;5.95;0.90;;;20.30;48.30;;;;;;5043633;28;20048;-56
2022/11/10 04:23:49;;;;;;;2.97;1.17;;;20.30;48.30;;;;;;5053500;28;20389;-53
2022/11/10 04:26:37;;;;;;;3.13;1.30;;;20.20;48.30;;;;;;5053445;28;20372;-56
2022/11/10 04:29:21;;;;;;;3.20;1.20;;;20.20;48.30;;;;;;5039063;28;20390;-53
2022/11/10 04:32:06;;;;;;;3.40;1.20;;;20.20;48.30;;;;;;5053462;28;20048;-56
2022/11/10 04:34:51;;;;;;;4.03;1.20;;;20.20;48.30;;;;;;5054192;28;20426;-56
2022/11/10 04:37:35;;;;;;;3.47;1.20;;;20.20;48.30;;;;;;5054043;28;20048;-50
2022/11/10 04:40:19;;;;;;;3.72;1.23;;;20.20;48.30;;;;;;5053858;28;20079;-56
2022/11/10 04:43:03;;;;;;;3.25;1.30;;;20.20;48.30;;;;;;5052589;28;20044;-53
2022/11/10 04:45:48;;;;;;;1.73;0.80;;;20.20;48.30;;;;;;5033133;28;20044;-57
2022/11/10 04:48:33;;;;;;;4.93;1.73;;;20.20;48.30;;;;;;5051109;28;20129;-56
2022/11/10 04:51:19;;;;;;;3.03;1.00;;;20.20;48.30;;;;;;5051523;28;20536;-54
2022/11/10 04:54:05;;;;;;;2.88;1.05;;;20.20;48.30;;;;;;5053777;28;20087;-54
2022/11/10 04:56:49;;;;;;;4.15;1.30;;;20.20;48.30;;;;;;5053462;28;20024;-53
2022/11/10 04:59:34;;;;;;;4.35;1.83;;;20.20;48.30;;;;;;5054419;28;20110;-55
2022/11/10 05:02:18;;;;;;;4.65;1.13;;;20.20;48.30;;;;;;5051849;28;20180;-57
2022/11/10 05:05:02;;;;;;;4.32;1.10;;;20.20;48.30;;;;;;5040816;28;20036;-57
2022/11/10 05:07:47;;;;;;;3.13;1.10;;;20.20;48.30;;;;;;5043010;28;20392;-54
2022/11/10 05:10:33;;;;;;;3.88;1.38;;;20.20;48.30;;;;;;5037827;28;20107;-54
2022/11/10 05:13:18;;;;;;;4.72;1.27;;;20.20;48.30;;;;;;5056322;28;20087;-55
2022/11/10 05:16:02;;;;;;;3.40;1.17;;;20.20;48.30;;;;;;5057470;28;20055;-54
2022/11/10 05:18:52;;;;;;;;;;;20.10;48.30;;;;;;5035974;28;20556;-57
2022/11/10 05:21:37;;;;;;;2.47;0.90;;;20.20;48.30;;;;;;5052521;28;19943;-56
2022/11/10 05:24:21;;;;;;;3.95;1.40;;;20.10;48.30;;;;;;5057740;28;20039;-54
2022/11/10 05:27:07;;;;;;;4.85;1.40;;;20.10;48.30;;;;;;5045726;28;20109;-57
2022/11/10 05:29:52;;;;;;;3.97;1.08;;;20.10;48.30;;;;;;5057239;28;20414;-56
2022/11/10 05:32:37;;;;;;;3.58;0.90;;;20.10;48.40;;;;;;5054372;28;20043;-53
2022/11/10 05:35:22;;;;;;;4.15;1.40;;;20.10;48.40;;;;;;5056235;28;20133;-56
2022/11/10 05:38:07;;;;;;;3.92;0.90;;;20.10;48.40;;;;;;5042168;28;20098;-54
2022/11/10 05:40:51;;;;;;;2.55;0.90;;;20.10;48.40;;;;;;5057430;28;20052;-57
2022/11/10 05:43:36;;;;;;;5.43;1.05;;;20.10;48.40;;;;;;5037503;28;20385;-52
2022/11/10 05:46:20;;;;;;;3.63;1.10;;;20.10;48.40;;;;;;5040717;28;20052;-54
2022/11/10 05:49:04;;;;;;;5.57;1.60;;;20.10;48.40;;;;;;5052477;28;20091;-53
2022/11/10 05:51:48;;;;;;;4.13;1.27;;;20.10;48.40;;;;;;5056318;28;20044;-56
2022/11/10 05:54:33;;;;;;;3.03;1.10;;;20.10;48.40;;;;;;5051081;28;20115;-54
2022/11/10 05:57:17;;;;;;;3.72;1.08;;;20.10;48.40;;;;;;5050436;28;20176;-55
2022/11/10 06:00:03;;;;;;;4.68;1.40;;;20.10;48.40;;;;;;5037237;28;20451;-55
2022/11/10 06:03:26;;;;;;;4.57;1.20;;;20.10;48.40;;;;;;5048331;28;20117;-58
2022/11/10 06:06:11;;;;;;;4.05;1.05;;;20.10;48.40;;;;;;5027867;28;20052;-55
2022/11/10 06:08:55;;;;;;;2.20;0.98;;;20.10;48.40;;;;;;5046226;28;20116;-54
2022/11/10 06:11:39;;;;;;;2.65;0.98;;;20.10;48.40;;;;;;5055658;28;20112;-53
2022/11/10 06:14:23;;;;;;;3.58;1.27;;;20.10;48.50;;;;;;5056289;28;20194;-57
2022/11/10 06:17:08;;;;;;;4.85;1.30;;;20.10;48.40;;;;;;5056196;28;20471;-57
2022/11/10 06:19:52;;;;;;;5.03;1.40;;;20.10;48.40;;;;;;5040201;28;20095;-53
2022/11/10 06:22:37;;;;;;;4.22;1.33;;;20.10;48.40;;;;;;5045239;28;20051;-56
2022/11/10 06:25:21;;;;;;;3.42;1.08;;;20.10;48.50;;;;;;5056500;28;20359;-56
2022/11/10 06:28:06;;;;;;;4.80;1.42;;;20.10;48.60;;;;;;5054723;28;20422;-56
2022/11/10 06:30:51;;;;;;;5.20;0.93;;;20.10;48.60;;;;;;5056394;28;20428;-56
2022/11/10 06:33:35;;;;;;;5.22;1.33;;;20.00;48.50;;;;;;5044773;28;20048;-56
2022/11/10 06:36:19;;;;;;;4.85;1.40;;;20.00;48.50;;;;;;5043117;28;20048;-54
2022/11/10 06:39:03;;;;;;;4.70;1.15;;;20.00;48.50;;;;;;5053617;28;20508;-56
2022/11/10 06:41:47;;;;;;;3.28;1.27;;;20.00;48.60;;;;;;5054915;28;20118;-55
2022/11/10 06:44:31;;;;;;;5.32;1.42;;;20.00;48.50;;;;;;5055762;28;20518;-55
2022/11/10 06:47:16;;;;;;;4.18;1.23;;;20.00;48.50;;;;;;5053293;28;20417;-56
2022/11/10 06:50:01;;;;;;;3.50;1.30;;;20.00;48.50;;;;;;5044663;28;20366;-55
2022/11/10 06:52:53;;;;;;;3.58;1.25;;;20.00;48.50;;;;;;5032561;28;20036;-57
2022/11/10 06:55:38;;;;;;;3.95;1.10;;;20.00;48.50;;;;;;5049018;28;20472;-58
2022/11/10 06:58:22;;;;;;;3.92;1.33;;;20.00;48.50;;;;;;5030211;28;20586;-49
2022/11/10 07:01:06;;;;;;;3.60;1.10;;;20.00;48.60;;;;;;5054942;28;20391;-56
2022/11/10 07:03:50;;;;;;;3.92;1.10;;;20.00;48.50;;;;;;5053219;28;20055;-57
2022/11/10 07:06:35;;;;;;;5.25;1.40;;;20.00;48.50;;;;;;5051396;28;20418;-52
2022/11/10 07:09:19;;;;;;;2.22;1.02;;;20.00;48.60;;;;;;5042271;28;20103;-57
2022/11/10 07:12:05;;;;;;;5.18;1.17;;;20.00;48.60;;;;;;5027173;28;20138;-56
2022/11/10 07:14:49;;;;;;;4.55;1.30;;;20.00;48.60;;;;;;5054681;28;20048;-55
2022/11/10 07:17:40;;;;;;;3.17;0.90;;;20.00;49.20;;;;;;5052953;28;20051;-53
2022/11/10 07:20:27;;;;;;;3.50;1.17;;;20.00;48.60;;;;;;5045637;28;20303;-52
2022/11/10 07:23:11;;;;;;;3.13;1.02;;;20.00;48.60;;;;;;5049582;28;20107;-55
2022/11/10 07:25:58;;;;;;;4.35;1.50;;;20.00;48.60;;;;;;5046478;28;20047;-54
2022/11/10 07:28:43;;;;;;;3.00;1.10;;;20.00;48.60;;;;;;5036515;28;20476;-54
2022/11/10 07:31:27;;;;;;;4.15;1.50;;;20.00;48.70;;;;;;5048918;28;20056;-54
2022/11/10 07:34:11;;;;;;;8.82;3.10;;;20.00;48.70;;;;;;5044273;28;20449;-56
2022/11/10 07:36:56;;;;;;;8.27;2.63;;;20.00;48.70;;;;;;5039194;28;20036;-55
2022/11/10 07:39:40;;;;;;;8.73;2.38;;;20.00;48.80;;;;;;5054763;28;20047;-56
2022/11/10 07:42:24;;;;;;;9.77;2.77;;;20.00;48.80;;;;;;5051447;28;20047;-56
2022/11/10 07:45:09;;;;;;;8.07;2.47;;;20.00;48.80;;;;;;5040321;28;20326;-57
2022/11/10 07:48:04;;;;;;;6.22;2.22;;;20.00;48.80;;;;;;5044138;28;20036;-55
2022/11/10 07:50:50;;;;;;;5.57;2.13;;;20.00;48.80;;;;;;5047156;28;20040;-56
2022/11/10 07:53:34;;;;;;;7.88;2.35;;;20.00;48.80;;;;;;5045016;28;20158;-57
2022/11/10 07:56:19;;;;;;;9.15;2.17;;;20.00;48.80;;;;;;5047909;28;20421;-53
2022/11/10 07:59:03;;;;;;;5.22;2.33;;;20.00;48.80;;;;;;5050476;28;20052;-55
2022/11/10 08:01:47;;;;;;;3.53;1.42;;;20.00;48.80;;;;;;5051242;28;20117;-56
2022/11/10 08:04:31;;;;;;;6.65;1.90;;;20.00;48.80;;;;;;5034989;28;20419;-56
2022/11/10 08:07:15;;;;;;;5.60;1.90;;;20.00;48.80;;;;;;5034202;28;20560;-56
2022/11/10 08:09:59;;;;;;;4.57;1.80;;;20.00;48.80;;;;;;5051838;28;20064;-56
2022/11/10 08:12:43;;;;;;;5.85;1.55;;;20.00;48.80;;;;;;5052627;28;20132;-52
2022/11/10 08:15:30;;;;;;;5.30;1.40;;;20.00;48.80;;;;;;5053226;28;20197;-56
2022/11/10 08:18:18;;;;;;;4.80;1.67;;;20.00;48.80;;;;;;5050799;28;20047;-54
2022/11/10 08:21:03;;;;;;;6.18;1.50;;;20.00;48.80;;;;;;5034532;28;20064;-55
2022/11/10 08:23:48;;;;;;;6.45;1.70;;;20.00;48.80;;;;;;5035032;28;20107;-54
2022/11/10 08:26:32;;;;;;;6.03;1.75;;;20.10;48.90;;;;;;5021120;28;20047;-54
2022/11/10 08:29:17;;;;;;;3.95;1.33;;;20.00;48.80;;;;;;5049805;28;20062;-55
2022/11/10 08:32:01;;;;;;;3.53;1.30;;;20.00;48.90;;;;;;5045583;28;20052;-56
2022/11/10 08:34:46;;;;;;;5.05;1.30;;;20.10;48.90;;;;;;5041964;28;20051;-55
2022/11/10 08:37:30;;;;;;;5.05;1.50;;;20.10;48.90;;;;;;5046613;28;20039;-57
2022/11/10 08:40:14;;;;;;;4.47;1.30;;;20.00;48.90;;;;;;5040696;28;20044;-53
2022/11/10 08:43:00;;;;;;;3.70;1.38;;;20.10;49.00;;;;;;5045915;28;20467;-54
2022/11/10 08:45:45;;;;;;;5.53;1.70;;;20.10;48.90;;;;;;5047938;28;20044;-53
2022/11/10 08:48:29;;;;;;;4.03;1.40;;;20.10;48.90;;;;;;5034313;28;20118;-54
2022/11/10 08:51:13;;;;;;;4.07;1.50;;;20.10;48.90;;;;;;5038325;28;20098;-56
2022/11/10 08:53:57;;;;;;;5.32;1.35;;;20.10;48.90;;;;;;5050231;28;20098;-56
2022/11/10 08:56:41;;;;;;;4.78;1.50;;;20.10;48.90;;;;;;5044244;28;20075;-56
2022/11/10 08:59:25;;;;;;;3.85;1.40;;;20.10;48.90;;;;;;5047486;28;20044;-54
2022/11/10 09:02:10;;;;;;;4.70;1.42;;;20.10;48.90;;;;;;5051703;28;20102;-53
2022/11/10 09:04:54;;;;;;;5.55;1.50;;;20.10;48.90;;;;;;5039666;28;20044;-54
2022/11/10 09:07:46;;;;;;;3.60;1.40;;;20.10;49.00;;;;;;5038242;28;20179;-56
2022/11/10 09:10:31;;;;;;;4.45;1.35;;;20.10;49.00;;;;;;5037944;28;20044;-53
2022/11/10 09:13:17;;;;;;;4.30;1.33;;;20.10;49.00;;;;;;5037267;28;20448;-54
2022/11/10 09:16:03;;;;;;;3.08;1.02;;;20.10;49.00;;;;;;5057017;28;20079;-51
2022/11/10 09:18:47;;;;;;;4.40;1.42;;;20.10;49.00;;;;;;5045343;28;20063;-50
2022/11/10 09:21:32;;;;;;;4.43;1.40;;;20.20;49.10;;;;;;5058171;28;20043;-54
2022/11/10 09:24:16;;;;;;;4.53;1.40;;;20.20;49.10;;;;;;5057748;28;20052;-54
2022/11/10 09:27:00;;;;;;;5.38;1.30;;;20.20;49.70;;;;;;5057735;28;20044;-56
2022/11/10 09:29:44;;;;;;;4.63;1.67;;;20.20;49.10;;;;;;5054982;28;20040;-48
2022/11/10 09:32:30;;;;;;;4.50;1.30;;;20.20;49.10;;;;;;5052878;28;20091;-56
2022/11/10 09:35:15;;;;;;;6.45;1.77;;;20.20;49.10;;;;;;5052503;28;20078;-53
2022/11/10 09:37:59;;;;;;;4.28;1.30;;;20.20;49.20;;;;;;5057335;28;20039;-51
2022/11/10 09:41:01;;;;;;;5.45;1.67;;;20.20;49.10;;;;;;5056914;28;20044;-53
2022/11/10 09:44:10;;;;;;;5.78;1.67;;;20.20;49.20;;;;;;5056174;28;20056;-56
2022/11/10 09:47:01;;;;;;;5.65;1.80;;;20.20;49.30;;;;;;5057228;28;20083;-52
2022/11/10 09:49:59;;;;;;;5.90;1.35;;;20.20;49.30;;;;;;5044978;28;20470;-52
2022/11/10 09:52:46;;;;;;;3.60;1.30;;;20.20;49.40;;;;;;5041168;28;20047;-57
2022/11/10 09:55:34;;;;;;;5.15;1.27;;;20.20;49.40;;;;;;5053779;28;20392;-53
2022/11/10 09:58:23;;;;;;;5.97;1.38;;;20.20;49.40;;;;;;5050732;28;20040;-55
2022/11/10 10:01:36;;;;;;;2.67;1.10;;;20.20;49.50;;;;;;5050999;28;20048;-50
2022/11/10 10:04:36;;;;;;;3.70;1.25;;;20.30;49.60;;;;;;5049360;28;20097;-52
2022/11/10 10:07:29;;;;;;;2.70;1.05;;;20.30;49.50;;;;;;5047832;28;20128;-53
2022/11/10 10:10:30;;;;;;;3.47;1.27;;;20.30;49.50;;;;;;5048340;28;20533;-53
2022/11/10 10:13:36;;;;;;;4.25;1.25;;;20.30;49.50;;;;;;5046772;28;20132;-54
2022/11/10 10:16:39;;;;;;;5.32;1.40;;;20.30;49.50;;;;;;5049278;28;20126;-52
2022/11/10 10:19:30;;;;;;;4.72;1.13;;;20.30;49.50;;;;;;5048404;28;20035;-53
2022/11/10 10:22:29;;;;;;;4.00;1.10;;;20.30;49.50;;;;;;5049322;28;20485;-55
2022/11/10 10:25:25;;;;;;;3.83;1.35;;;20.30;49.50;;;;;;5050567;28;20090;-55
2022/11/10 10:28:22;;;;;;;3.75;1.10;;;20.30;49.50;;;;;;5048460;28;20467;-56
2022/11/10 10:31:26;;;;;;;2.25;1.08;;;20.30;49.50;;;;;;5049302;28;20419;-55
2022/11/10 10:34:16;;;;;;;4.40;1.23;;;20.30;49.50;;;;;;5046617;28;20044;-53
2022/11/10 10:37:00;;;;;;;3.78;1.17;;;20.30;49.50;;;;;;5051844;28;20047;-54
2022/11/10 10:39:48;;;;;;;4.65;1.30;;;20.30;49.50;;;;;;5049560;28;20056;-55
2022/11/10 10:42:34;;;;;;;4.82;1.52;;;20.30;49.50;;;;;;5050797;28;20043;-53
2022/11/10 10:45:23;;;;;;;3.97;1.58;;;20.30;49.50;;;;;;5049082;28;20079;-52
2022/11/10 10:48:24;;;;;;;4.00;1.30;;;20.40;49.60;;;;;;5048997;28;20462;-55
2022/11/10 10:51:09;;;;;;;5.15;1.67;;;20.40;49.60;;;;;;5051138;28;20414;-53
2022/11/10 10:53:53;;;;;;;2.80;0.98;;;20.30;49.50;;;;;;5050696;28;20128;-55
2022/11/10 10:56:38;;;;;;;4.60;1.30;;;20.40;49.60;;;;;;5049804;28;20044;-53
2022/11/10 10:59:22;;;;;;;4.25;1.38;;;20.40;49.60;;;;;;5046205;28;20115;-51
2022/11/10 11:02:29;;;;;;;5.82;1.50;;;20.40;49.60;;;;;;5046271;28;20079;-52
2022/11/10 11:05:16;;;;;;;2.22;0.93;;;20.40;49.80;;;;;;5049664;28;20052;-54
2022/11/10 11:08:02;;;;;;;4.55;1.40;;;20.40;50.40;;;;;;5046204;28;20047;-55
2022/11/10 11:10:47;;;;;;;4.43;1.27;;;20.40;50.80;;;;;;5049233;28;22531;-57
2022/11/10 11:13:31;;;;;;;7.32;1.10;;;20.50;51.10;;;;;;5038076;28;20106;-56
2022/11/10 11:16:15;;;;;;;6.28;1.10;;;20.50;51.00;;;;;;5048921;28;20051;-54
2022/11/10 11:19:00;;;;;;;5.10;1.27;;;20.50;50.90;;;;;;5050334;28;20047;-54
2022/11/10 11:22:01;;;;;;;4.47;1.35;;;20.50;50.70;;;;;;5049542;28;20124;-56
2022/11/10 11:25:05;;;;;;;4.13;1.40;;;20.50;50.50;;;;;;5046290;28;20044;-56
2022/11/10 11:27:55;;;;;;;3.25;1.20;;;20.60;50.50;;;;;;5039841;28;20143;-57
2022/11/10 11:31:03;;;;;;;3.00;1.10;;;20.60;50.50;;;;;;5022618;28;20039;-56
2022/11/10 11:34:08;;;;;;;4.38;1.30;;;20.60;50.40;;;;;;5044787;28;20040;-56
2022/11/10 11:37:11;;;;;;;4.30;1.10;;;20.60;50.60;;;;;;5046199;28;20376;-58
2022/11/10 11:40:05;;;;;;;4.50;1.27;;;20.60;50.50;;;;;;5048043;28;20071;-56
2022/11/10 11:42:50;;;;;;;2.60;0.90;;;20.60;50.50;;;;;;5047516;28;20534;-55
2022/11/10 11:45:53;;;;;;;;;;;20.60;50.40;;;;;;5035302;28;20052;-59
2022/11/10 11:49:01;;;;;;;3.58;1.38;;;20.60;50.40;;;;;;5045508;28;19920;-56
2022/11/10 11:52:09;;;;;;;4.10;1.08;;;20.70;50.30;;;;;;5046471;28;20043;-57
2022/11/10 11:55:09;;;;;;;3.58;1.02;;;20.70;50.20;;;;;;5046588;28;20052;-59
2022/11/10 11:57:53;;;;;;;4.20;1.30;;;20.70;50.20;;;;;;5044042;28;20090;-58
2022/11/10 12:00:51;;;;;;;4.70;1.40;;;20.70;50.20;;;;;;5046041;28;20044;-57
2022/11/10 12:03:56;;;;;;;3.75;1.10;;;20.70;50.10;;;;;;5042266;28;20381;-57
2022/11/10 12:06:58;;;;;;;3.80;1.10;;;20.70;50.10;;;;;;5044231;28;20442;-59
2022/11/10 12:10:10;;;;;;;5.38;1.38;;;20.70;50.10;;;;;;5045146;28;20127;-55
2022/11/10 12:13:10;;;;;;;4.18;1.30;;;20.70;50.30;;;;;;5042275;28;20977;-54
2022/11/10 12:16:30;;;;;;;5.18;1.30;;;20.80;50.60;;;;;;5027458;28;20107;-54
2022/11/10 12:19:26;;;;;;;3.97;1.38;;;20.80;50.70;;;;;;5049575;28;20102;-56
2022/11/10 12:22:52;;;;;;;3.15;1.10;;;20.80;50.80;;;;;;5046937;28;20107;-50
2022/11/10 12:25:53;;;;;;;6.28;1.33;;;20.90;50.90;;;;;;5048511;28;20043;-58
2022/11/10 12:28:51;;;;;;;7.32;1.33;;;20.90;50.90;;;;;;5046460;28;20078;-54
2022/11/10 12:31:38;;;;;;;4.35;1.20;;;20.90;50.70;;;;;;5049114;28;20078;-53
2022/11/10 12:34:42;;;;;;;5.55;1.30;;;20.90;50.60;;;;;;5040932;28;20483;-56
2022/11/10 12:37:29;;;;;;;4.97;1.35;;;21.00;50.50;;;;;;5044325;28;20076;-54
2022/11/10 12:40:18;;;;;;;6.00;1.30;;;21.00;50.30;;;;;;5054813;28;20074;-56
2022/11/10 12:43:08;;;;;;;5.25;1.88;;;21.00;50.20;;;;;;5053645;28;20095;-54
2022/11/10 12:46:02;;;;;;;3.58;1.30;;;21.00;50.10;;;;;;5053834;28;20123;-55
2022/11/10 12:49:08;;;;;;;5.18;1.65;;;21.00;50.00;;;;;;5052480;28;20341;-58
2022/11/10 12:52:14;;;;;;;5.28;1.30;;;21.10;49.90;;;;;;5055330;28;20091;-55
2022/11/10 12:54:59;;;;;;;4.68;1.48;;;21.10;49.80;;;;;;5051925;28;20048;-54
2022/11/10 12:57:44;;;;;;;2.65;0.80;;;21.10;49.70;;;;;;5052851;28;20043;-55
2022/11/10 13:00:31;;;;;;;4.88;1.30;;;21.10;49.70;;;;;;5054022;28;20056;-53
2022/11/10 13:03:29;;;;;;;5.13;1.40;;;21.10;49.60;;;;;;5052632;28;20498;-57
2022/11/10 13:06:34;;;;;;;6.35;1.23;;;21.10;49.50;;;;;;5055765;28;20040;-50
2022/11/10 13:09:27;;;;;;;4.60;1.10;;;21.10;49.40;;;;;;5040660;28;20040;-57
2022/11/10 13:12:21;;;;;;;4.55;1.00;;;21.10;49.40;;;;;;5053600;28;20036;-57
2022/11/10 13:15:38;;;;;;;5.38;1.10;;;21.10;49.30;;;;;;5020941;28;20160;-55
2022/11/10 13:18:30;;;;;;;4.30;1.08;;;21.10;49.20;;;;;;5015026;28;20092;-57
2022/11/10 13:21:15;;;;;;;6.70;1.38;;;21.10;49.20;;;;;;5020201;28;20184;-56
2022/11/10 13:24:01;;;;;;;3.88;1.30;;;21.10;49.10;;;;;;5011617;28;20161;-56
2022/11/10 13:26:51;;;;;;;5.43;1.05;;;21.20;49.10;;;;;;5001115;28;20474;-57
2022/11/10 13:29:45;;;;;;;3.22;1.00;;;21.20;49.00;;;;;;5008507;28;20049;-54
2022/11/10 13:32:31;;;;;;;4.18;1.10;;;21.20;49.00;;;;;;5017199;28;20100;-55
2022/11/10 13:35:27;;;;;;;3.67;1.33;;;21.20;48.90;;;;;;5017570;28;20092;-59
2022/11/10 13:38:31;;;;;;;4.20;1.02;;;21.20;48.90;;;;;;5014751;28;20084;-54
2022/11/10 13:41:15;;;;;;;3.78;1.10;;;21.20;48.80;;;;;;5013187;28;20041;-56
2022/11/10 13:44:00;;;;;;;3.25;1.00;;;21.20;48.80;;;;;;5009980;28;20093;-59
2022/11/10 13:47:33;;;;;;;4.82;1.10;;;21.20;48.70;;;;;;5016270;28;20092;-58
2022/11/10 13:50:56;;;;;;;5.22;1.20;;;21.20;48.80;;;;;;5011688;28;20377;-55
2022/11/10 13:53:55;;;;;;;4.13;1.20;;;21.20;48.90;;;;;;5010716;28;20040;-55
2022/11/10 13:57:11;;;;;;;3.25;1.00;;;21.20;48.80;;;;;;5008080;28;20133;-53
2022/11/10 13:59:58;;;;;;;4.38;1.20;;;21.20;48.70;;;;;;5010621;28;20102;-55
2022/11/10 14:02:57;;;;;;;2.28;0.73;;;21.20;48.70;;;;;;5007818;28;20048;-52
2022/11/10 14:06:02;;;;;;;3.35;1.00;;;21.20;49.20;;;;;;5011432;28;20045;-53
2022/11/10 14:09:09;;;;;;;3.47;0.90;;;21.20;48.50;;;;;;5010416;28;20048;-52
2022/11/10 14:12:01;;;;;;;3.45;0.85;;;21.20;48.50;;;;;;5012217;28;20040;-53
2022/11/10 14:15:12;;;;;;;4.35;1.10;;;21.20;48.40;;;;;;5046307;28;20126;-52
2022/11/10 14:17:57;;;;;;;3.67;1.30;;;21.20;48.30;;;;;;5047920;28;20052;-51
2022/11/10 14:20:44;;;;;;;2.72;1.10;;;21.20;48.20;;;;;;5045998;28;20474;-50
2022/11/10 14:23:47;;;;;;;3.63;1.10;;;21.20;48.20;;;;;;5049642;28;20086;-55
2022/11/10 14:26:42;;;;;;;3.17;0.90;;;21.10;48.10;;;;;;5027433;28;20075;-55
2022/11/10 14:29:28;;;;;;;3.30;1.08;;;21.10;48.00;;;;;;5045737;28;20045;-54
2022/11/10 14:32:18;;;;;;;4.22;0.95;;;21.10;48.00;;;;;;5045129;28;20044;-52
2022/11/10 14:35:02;;;;;;;3.85;1.20;;;21.10;48.10;;;;;;5048560;28;20355;-54
2022/11/10 14:37:46;;;;;;;8.98;2.83;;;21.10;48.10;;;;;;5048942;28;20044;-55
2022/11/10 14:40:31;;;;;;;9.30;2.70;;;21.10;48.10;;;;;;5047499;28;20154;-54
2022/11/10 14:43:35;;;;;;;;;;;21.10;48.20;;;;;;5047041;28;20040;-53
2022/11/10 14:46:23;;;;;;;6.88;2.10;;;21.10;48.20;;;;;;5028031;28;20261;-52
2022/11/10 14:49:09;;;;;;;7.78;2.65;;;21.10;48.20;;;;;;5048105;28;20040;-53
2022/11/10 14:51:57;;;;;;;8.43;2.50;;;21.10;48.20;;;;;;5047892;28;20103;-54